sensor_id;sensor_type;location;lat;lon;timestamp;P1;durP1;ratioP1;P2;durP2;ratioP2
39190;SDS011;24916;51.676;6.614;2023-12-22T00:02:05;2.97;;;1.50;;
39190;SDS011;24916;51.676;6.614;2023-12-22T00:04:30;2.10;;;1.20;;
39190;SDS011;24916;51.676;6.614;2023-12-22T00:06:56;2.03;;;1.42;;
39190;SDS011;24916;51.676;6.614;2023-12-22T00:09:21;2.75;;;1.40;;
39190;SDS011;24916;51.676;6.614;2023-12-22T00:11:46;2.30;;;1.27;;
39190;SDS011;24916;51.676;6.614;2023-12-22T00:14:11;2.13;;;1.33;;
39190;SDS011;24916;51.676;6.614;2023-12-22T00:16:37;2.50;;;1.30;;
39190;SDS011;24916;51.676;6.614;2023-12-22T00:19:03;1.90;;;1.30;;
39190;SDS011;24916;51.676;6.614;2023-12-22T00:21:28;2.47;;;1.23;;
39190;SDS011;24916;51.676;6.614;2023-12-22T00:23:53;2.22;;;1.10;;
39190;SDS011;24916;51.676;6.614;2023-12-22T00:26:19;3.50;;;1.25;;
39190;SDS011;24916;51.676;6.614;2023-12-22T00:28:44;2.65;;;1.38;;
39190;SDS011;24916;51.676;6.614;2023-12-22T00:31:09;2.17;;;1.17;;
39190;SDS011;24916;51.676;6.614;2023-12-22T00:33:37;2.92;;;1.33;;
39190;SDS011;24916;51.676;6.614;2023-12-22T00:36:02;3.90;;;1.20;;
39190;SDS011;24916;51.676;6.614;2023-12-22T00:38:27;2.22;;;1.30;;
39190;SDS011;24916;51.676;6.614;2023-12-22T00:40:53;3.73;;;1.57;;
39190;SDS011;24916;51.676;6.614;2023-12-22T00:43:18;2.75;;;1.42;;
39190;SDS011;24916;51.676;6.614;2023-12-22T00:45:43;2.15;;;1.17;;
39190;SDS011;24916;51.676;6.614;2023-12-22T00:48:08;2.13;;;1.30;;
39190;SDS011;24916;51.676;6.614;2023-12-22T00:50:33;2.15;;;1.10;;
39190;SDS011;24916;51.676;6.614;2023-12-22T00:52:59;2.53;;;1.33;;
39190;SDS011;24916;51.676;6.614;2023-12-22T00:55:24;2.55;;;1.10;;
39190;SDS011;24916;51.676;6.614;2023-12-22T00:57:49;1.90;;;1.10;;
39190;SDS011;24916;51.676;6.614;2023-12-22T01:00:15;2.53;;;1.13;;
39190;SDS011;24916;51.676;6.614;2023-12-22T01:02:40;2.63;;;1.20;;
39190;SDS011;24916;51.676;6.614;2023-12-22T01:05:05;3.55;;;1.30;;
39190;SDS011;24916;51.676;6.614;2023-12-22T01:07:31;1.92;;;1.10;;
39190;SDS011;24916;51.676;6.614;2023-12-22T01:09:56;2.08;;;1.17;;
39190;SDS011;24916;51.676;6.614;2023-12-22T01:12:26;1.90;;;1.20;;
39190;SDS011;24916;51.676;6.614;2023-12-22T01:14:51;1.80;;;0.90;;
39190;SDS011;24916;51.676;6.614;2023-12-22T01:17:17;2.30;;;1.15;;
39190;SDS011;24916;51.676;6.614;2023-12-22T01:19:42;1.67;;;1.10;;
39190;SDS011;24916;51.676;6.614;2023-12-22T01:22:07;2.22;;;1.13;;
39190;SDS011;24916;51.676;6.614;2023-12-22T01:24:32;2.80;;;1.23;;
39190;SDS011;24916;51.676;6.614;2023-12-22T01:26:58;1.70;;;1.00;;
39190;SDS011;24916;51.676;6.614;2023-12-22T01:29:23;2.60;;;1.27;;
39190;SDS011;24916;51.676;6.614;2023-12-22T01:31:49;1.95;;;0.90;;
39190;SDS011;24916;51.676;6.614;2023-12-22T01:34:14;3.08;;;1.20;;
39190;SDS011;24916;51.676;6.614;2023-12-22T01:36:39;1.75;;;0.98;;
39190;SDS011;24916;51.676;6.614;2023-12-22T01:39:04;1.75;;;0.98;;
39190;SDS011;24916;51.676;6.614;2023-12-22T01:41:29;1.83;;;1.10;;
39190;SDS011;24916;51.676;6.614;2023-12-22T01:43:55;1.98;;;1.20;;
39190;SDS011;24916;51.676;6.614;2023-12-22T01:46:20;2.10;;;1.15;;
39190;SDS011;24916;51.676;6.614;2023-12-22T01:48:46;1.45;;;1.02;;
39190;SDS011;24916;51.676;6.614;2023-12-22T01:51:11;1.50;;;1.00;;
39190;SDS011;24916;51.676;6.614;2023-12-22T01:53:37;3.13;;;1.40;;
39190;SDS011;24916;51.676;6.614;2023-12-22T01:56:02;1.75;;;1.20;;
39190;SDS011;24916;51.676;6.614;2023-12-22T01:58:27;2.13;;;1.10;;
39190;SDS011;24916;51.676;6.614;2023-12-22T02:00:54;1.75;;;1.08;;
39190;SDS011;24916;51.676;6.614;2023-12-22T02:03:20;1.45;;;1.00;;
39190;SDS011;24916;51.676;6.614;2023-12-22T02:05:46;1.77;;;1.08;;
39190;SDS011;24916;51.676;6.614;2023-12-22T02:08:11;1.67;;;0.98;;
39190;SDS011;24916;51.676;6.614;2023-12-22T02:10:36;2.03;;;1.20;;
39190;SDS011;24916;51.676;6.614;2023-12-22T02:13:02;1.55;;;0.95;;
39190;SDS011;24916;51.676;6.614;2023-12-22T02:15:28;1.98;;;0.93;;
39190;SDS011;24916;51.676;6.614;2023-12-22T02:17:55;1.73;;;1.02;;
39190;SDS011;24916;51.676;6.614;2023-12-22T02:20:22;1.75;;;0.93;;
39190;SDS011;24916;51.676;6.614;2023-12-22T02:22:51;1.60;;;0.90;;
39190;SDS011;24916;51.676;6.614;2023-12-22T02:25:17;1.67;;;0.90;;
39190;SDS011;24916;51.676;6.614;2023-12-22T02:27:44;1.63;;;0.93;;
39190;SDS011;24916;51.676;6.614;2023-12-22T02:30:14;1.55;;;0.90;;
39190;SDS011;24916;51.676;6.614;2023-12-22T02:32:41;1.38;;;0.90;;
39190;SDS011;24916;51.676;6.614;2023-12-22T02:35:09;1.08;;;0.90;;
39190;SDS011;24916;51.676;6.614;2023-12-22T02:37:35;1.98;;;0.98;;
39190;SDS011;24916;51.676;6.614;2023-12-22T02:40:01;2.10;;;0.88;;
39190;SDS011;24916;51.676;6.614;2023-12-22T02:42:26;2.22;;;1.10;;
39190;SDS011;24916;51.676;6.614;2023-12-22T02:44:55;2.30;;;1.08;;
39190;SDS011;24916;51.676;6.614;2023-12-22T02:47:21;1.40;;;0.80;;
39190;SDS011;24916;51.676;6.614;2023-12-22T02:49:46;1.67;;;0.90;;
39190;SDS011;24916;51.676;6.614;2023-12-22T02:52:11;2.58;;;1.10;;
39190;SDS011;24916;51.676;6.614;2023-12-22T02:54:36;1.15;;;0.80;;
39190;SDS011;24916;51.676;6.614;2023-12-22T02:57:04;1.77;;;0.95;;
39190;SDS011;24916;51.676;6.614;2023-12-22T02:59:30;1.13;;;0.80;;
39190;SDS011;24916;51.676;6.614;2023-12-22T03:01:55;1.73;;;0.95;;
39190;SDS011;24916;51.676;6.614;2023-12-22T03:04:20;1.60;;;0.80;;
39190;SDS011;24916;51.676;6.614;2023-12-22T03:06:45;2.17;;;1.00;;
39190;SDS011;24916;51.676;6.614;2023-12-22T03:09:11;1.77;;;1.00;;
39190;SDS011;24916;51.676;6.614;2023-12-22T03:11:36;1.80;;;1.00;;
39190;SDS011;24916;51.676;6.614;2023-12-22T03:14:01;1.40;;;0.80;;
39190;SDS011;24916;51.676;6.614;2023-12-22T03:16:27;1.55;;;0.75;;
39190;SDS011;24916;51.676;6.614;2023-12-22T03:18:52;2.22;;;1.02;;
39190;SDS011;24916;51.676;6.614;2023-12-22T03:21:18;1.67;;;0.90;;
39190;SDS011;24916;51.676;6.614;2023-12-22T03:23:44;1.75;;;0.93;;
39190;SDS011;24916;51.676;6.614;2023-12-22T03:26:09;2.00;;;0.90;;
39190;SDS011;24916;51.676;6.614;2023-12-22T03:28:34;2.38;;;1.17;;
39190;SDS011;24916;51.676;6.614;2023-12-22T03:31:00;1.75;;;0.93;;
39190;SDS011;24916;51.676;6.614;2023-12-22T03:33:25;1.52;;;0.90;;
39190;SDS011;24916;51.676;6.614;2023-12-22T03:35:50;1.73;;;0.80;;
39190;SDS011;24916;51.676;6.614;2023-12-22T03:38:16;1.80;;;0.93;;
39190;SDS011;24916;51.676;6.614;2023-12-22T03:40:41;1.20;;;0.85;;
39190;SDS011;24916;51.676;6.614;2023-12-22T03:43:06;2.25;;;1.00;;
39190;SDS011;24916;51.676;6.614;2023-12-22T03:45:31;2.23;;;1.13;;
39190;SDS011;24916;51.676;6.614;2023-12-22T03:47:56;1.67;;;0.90;;
39190;SDS011;24916;51.676;6.614;2023-12-22T03:50:22;1.95;;;0.80;;
39190;SDS011;24916;51.676;6.614;2023-12-22T03:52:47;1.15;;;0.80;;
39190;SDS011;24916;51.676;6.614;2023-12-22T03:55:12;1.13;;;0.80;;
39190;SDS011;24916;51.676;6.614;2023-12-22T03:57:37;2.00;;;0.80;;
39190;SDS011;24916;51.676;6.614;2023-12-22T04:00:03;1.40;;;0.90;;
39190;SDS011;24916;51.676;6.614;2023-12-22T04:02:29;2.53;;;1.17;;
39190;SDS011;24916;51.676;6.614;2023-12-22T04:04:54;1.25;;;0.80;;
39190;SDS011;24916;51.676;6.614;2023-12-22T04:07:19;1.67;;;0.85;;
39190;SDS011;24916;51.676;6.614;2023-12-22T04:09:44;1.77;;;1.00;;
39190;SDS011;24916;51.676;6.614;2023-12-22T04:12:10;1.85;;;1.00;;
39190;SDS011;24916;51.676;6.614;2023-12-22T04:14:35;1.23;;;0.90;;
39190;SDS011;24916;51.676;6.614;2023-12-22T04:17:00;1.55;;;0.85;;
39190;SDS011;24916;51.676;6.614;2023-12-22T04:19:25;3.60;;;0.75;;
39190;SDS011;24916;51.676;6.614;2023-12-22T04:21:51;1.45;;;0.73;;
39190;SDS011;24916;51.676;6.614;2023-12-22T04:24:16;1.83;;;1.00;;
39190;SDS011;24916;51.676;6.614;2023-12-22T04:26:41;2.28;;;1.00;;
39190;SDS011;24916;51.676;6.614;2023-12-22T04:29:06;2.15;;;1.02;;
39190;SDS011;24916;51.676;6.614;2023-12-22T04:31:32;1.48;;;0.90;;
39190;SDS011;24916;51.676;6.614;2023-12-22T04:33:57;1.75;;;0.93;;
39190;SDS011;24916;51.676;6.614;2023-12-22T04:36:22;1.38;;;0.80;;
39190;SDS011;24916;51.676;6.614;2023-12-22T04:38:47;1.90;;;1.10;;
39190;SDS011;24916;51.676;6.614;2023-12-22T04:41:12;1.85;;;0.82;;
39190;SDS011;24916;51.676;6.614;2023-12-22T04:43:38;1.60;;;0.85;;
39190;SDS011;24916;51.676;6.614;2023-12-22T04:46:03;1.87;;;0.87;;
39190;SDS011;24916;51.676;6.614;2023-12-22T04:48:28;1.17;;;0.73;;
39190;SDS011;24916;51.676;6.614;2023-12-22T04:50:53;1.42;;;1.00;;
39190;SDS011;24916;51.676;6.614;2023-12-22T04:53:20;1.73;;;0.87;;
39190;SDS011;24916;51.676;6.614;2023-12-22T04:55:45;1.23;;;0.80;;
39190;SDS011;24916;51.676;6.614;2023-12-22T04:58:11;1.63;;;0.80;;
39190;SDS011;24916;51.676;6.614;2023-12-22T05:00:36;1.45;;;0.80;;
39190;SDS011;24916;51.676;6.614;2023-12-22T05:03:01;0.90;;;0.55;;
39190;SDS011;24916;51.676;6.614;2023-12-22T05:05:26;1.65;;;0.77;;
39190;SDS011;24916;51.676;6.614;2023-12-22T05:07:51;2.30;;;0.90;;
39190;SDS011;24916;51.676;6.614;2023-12-22T05:10:17;1.27;;;0.80;;
39190;SDS011;24916;51.676;6.614;2023-12-22T05:12:42;1.90;;;0.70;;
39190;SDS011;24916;51.676;6.614;2023-12-22T05:15:07;1.65;;;0.80;;
39190;SDS011;24916;51.676;6.614;2023-12-22T05:17:32;1.17;;;0.60;;
39190;SDS011;24916;51.676;6.614;2023-12-22T05:19:58;1.00;;;0.75;;
39190;SDS011;24916;51.676;6.614;2023-12-22T05:22:23;1.95;;;0.88;;
39190;SDS011;24916;51.676;6.614;2023-12-22T05:24:49;2.30;;;0.82;;
39190;SDS011;24916;51.676;6.614;2023-12-22T05:27:14;1.07;;;0.67;;
39190;SDS011;24916;51.676;6.614;2023-12-22T05:29:40;1.42;;;0.77;;
39190;SDS011;24916;51.676;6.614;2023-12-22T05:32:05;1.23;;;0.80;;
39190;SDS011;24916;51.676;6.614;2023-12-22T05:34:31;1.23;;;0.70;;
39190;SDS011;24916;51.676;6.614;2023-12-22T05:36:56;1.45;;;0.90;;
39190;SDS011;24916;51.676;6.614;2023-12-22T05:39:21;1.45;;;0.88;;
39190;SDS011;24916;51.676;6.614;2023-12-22T05:41:46;1.37;;;0.80;;
39190;SDS011;24916;51.676;6.614;2023-12-22T05:44:12;1.27;;;0.77;;
39190;SDS011;24916;51.676;6.614;2023-12-22T05:46:37;1.92;;;0.80;;
39190;SDS011;24916;51.676;6.614;2023-12-22T05:49:04;1.05;;;0.52;;
39190;SDS011;24916;51.676;6.614;2023-12-22T05:51:35;2.10;;;0.90;;
39190;SDS011;24916;51.676;6.614;2023-12-22T05:54:01;1.63;;;0.80;;
39190;SDS011;24916;51.676;6.614;2023-12-22T05:56:26;1.30;;;0.80;;
39190;SDS011;24916;51.676;6.614;2023-12-22T05:58:51;2.15;;;0.90;;
39190;SDS011;24916;51.676;6.614;2023-12-22T06:01:17;1.10;;;0.63;;
39190;SDS011;24916;51.676;6.614;2023-12-22T06:03:43;1.70;;;0.98;;
39190;SDS011;24916;51.676;6.614;2023-12-22T06:06:08;1.38;;;0.75;;
39190;SDS011;24916;51.676;6.614;2023-12-22T06:08:33;1.10;;;0.60;;
39190;SDS011;24916;51.676;6.614;2023-12-22T06:10:59;1.20;;;0.80;;
39190;SDS011;24916;51.676;6.614;2023-12-22T06:13:24;1.98;;;0.77;;
39190;SDS011;24916;51.676;6.614;2023-12-22T06:15:49;1.20;;;0.70;;
39190;SDS011;24916;51.676;6.614;2023-12-22T06:18:15;1.00;;;0.63;;
39190;SDS011;24916;51.676;6.614;2023-12-22T06:20:40;2.08;;;0.90;;
39190;SDS011;24916;51.676;6.614;2023-12-22T06:23:05;1.10;;;0.73;;
39190;SDS011;24916;51.676;6.614;2023-12-22T06:25:30;1.13;;;0.70;;
39190;SDS011;24916;51.676;6.614;2023-12-22T06:27:55;1.87;;;0.90;;
39190;SDS011;24916;51.676;6.614;2023-12-22T06:30:21;1.45;;;0.70;;
39190;SDS011;24916;51.676;6.614;2023-12-22T06:32:46;1.85;;;0.85;;
39190;SDS011;24916;51.676;6.614;2023-12-22T06:35:12;1.48;;;0.88;;
39190;SDS011;24916;51.676;6.614;2023-12-22T06:37:38;1.52;;;0.88;;
39190;SDS011;24916;51.676;6.614;2023-12-22T06:40:03;1.70;;;0.80;;
39190;SDS011;24916;51.676;6.614;2023-12-22T06:42:28;1.73;;;0.85;;
39190;SDS011;24916;51.676;6.614;2023-12-22T06:44:54;1.33;;;0.70;;
39190;SDS011;24916;51.676;6.614;2023-12-22T06:47:19;1.20;;;0.90;;
39190;SDS011;24916;51.676;6.614;2023-12-22T06:49:44;1.13;;;0.75;;
39190;SDS011;24916;51.676;6.614;2023-12-22T06:52:10;1.43;;;0.80;;
39190;SDS011;24916;51.676;6.614;2023-12-22T06:54:36;1.08;;;0.70;;
39190;SDS011;24916;51.676;6.614;2023-12-22T06:57:01;2.05;;;0.90;;
39190;SDS011;24916;51.676;6.614;2023-12-22T06:59:26;1.58;;;0.73;;
39190;SDS011;24916;51.676;6.614;2023-12-22T07:01:51;1.42;;;0.57;;
39190;SDS011;24916;51.676;6.614;2023-12-22T07:04:17;1.27;;;0.80;;
39190;SDS011;24916;51.676;6.614;2023-12-22T07:06:42;1.60;;;0.90;;
39190;SDS011;24916;51.676;6.614;2023-12-22T07:11:36;1.85;;;0.93;;
39190;SDS011;24916;51.676;6.614;2023-12-22T07:14:02;2.00;;;0.82;;
39190;SDS011;24916;51.676;6.614;2023-12-22T07:16:27;2.05;;;0.75;;
39190;SDS011;24916;51.676;6.614;2023-12-22T07:18:52;1.58;;;0.80;;
39190;SDS011;24916;51.676;6.614;2023-12-22T07:21:17;1.60;;;0.80;;
39190;SDS011;24916;51.676;6.614;2023-12-22T07:23:46;3.67;;;1.10;;
39190;SDS011;24916;51.676;6.614;2023-12-22T07:26:11;2.42;;;1.20;;
39190;SDS011;24916;51.676;6.614;2023-12-22T07:28:36;1.70;;;0.90;;
39190;SDS011;24916;51.676;6.614;2023-12-22T07:31:02;3.05;;;1.00;;
39190;SDS011;24916;51.676;6.614;2023-12-22T07:33:27;1.95;;;0.98;;
39190;SDS011;24916;51.676;6.614;2023-12-22T07:35:53;1.42;;;0.70;;
39190;SDS011;24916;51.676;6.614;2023-12-22T07:38:18;1.50;;;0.80;;
39190;SDS011;24916;51.676;6.614;2023-12-22T07:40:43;1.13;;;0.70;;
39190;SDS011;24916;51.676;6.614;2023-12-22T07:43:09;1.58;;;0.85;;
39190;SDS011;24916;51.676;6.614;2023-12-22T07:45:34;3.40;;;0.70;;
39190;SDS011;24916;51.676;6.614;2023-12-22T07:47:59;8.18;;;1.65;;
39190;SDS011;24916;51.676;6.614;2023-12-22T07:50:24;7.07;;;1.55;;
39190;SDS011;24916;51.676;6.614;2023-12-22T07:52:50;6.88;;;1.75;;
39190;SDS011;24916;51.676;6.614;2023-12-22T07:55:15;9.00;;;1.98;;
39190;SDS011;24916;51.676;6.614;2023-12-22T07:57:40;5.72;;;1.65;;
39190;SDS011;24916;51.676;6.614;2023-12-22T08:00:06;7.82;;;1.90;;
39190;SDS011;24916;51.676;6.614;2023-12-22T08:02:31;12.98;;;2.25;;
39190;SDS011;24916;51.676;6.614;2023-12-22T08:04:57;9.93;;;1.95;;
39190;SDS011;24916;51.676;6.614;2023-12-22T08:07:22;13.90;;;2.30;;
39190;SDS011;24916;51.676;6.614;2023-12-22T08:09:47;12.07;;;2.67;;
39190;SDS011;24916;51.676;6.614;2023-12-22T08:12:12;18.35;;;2.38;;
39190;SDS011;24916;51.676;6.614;2023-12-22T08:14:37;10.02;;;2.05;;
39190;SDS011;24916;51.676;6.614;2023-12-22T08:17:03;14.82;;;2.25;;
39190;SDS011;24916;51.676;6.614;2023-12-22T08:19:28;13.75;;;2.25;;
39190;SDS011;24916;51.676;6.614;2023-12-22T08:21:53;13.02;;;2.72;;
39190;SDS011;24916;51.676;6.614;2023-12-22T08:24:20;16.83;;;3.45;;
39190;SDS011;24916;51.676;6.614;2023-12-22T08:26:46;14.75;;;3.10;;
39190;SDS011;24916;51.676;6.614;2023-12-22T08:29:11;12.82;;;3.10;;
39190;SDS011;24916;51.676;6.614;2023-12-22T08:31:36;11.10;;;2.90;;
39190;SDS011;24916;51.676;6.614;2023-12-22T08:34:01;10.85;;;3.20;;
39190;SDS011;24916;51.676;6.614;2023-12-22T08:36:27;10.77;;;2.67;;
39190;SDS011;24916;51.676;6.614;2023-12-22T08:38:52;7.70;;;3.30;;
39190;SDS011;24916;51.676;6.614;2023-12-22T08:41:17;11.03;;;3.47;;
39190;SDS011;24916;51.676;6.614;2023-12-22T08:43:42;14.70;;;3.50;;
39190;SDS011;24916;51.676;6.614;2023-12-22T08:46:08;7.97;;;2.85;;
39190;SDS011;24916;51.676;6.614;2023-12-22T08:48:34;11.10;;;3.05;;
39190;SDS011;24916;51.676;6.614;2023-12-22T08:51:00;8.13;;;2.55;;
39190;SDS011;24916;51.676;6.614;2023-12-22T08:53:25;9.00;;;3.00;;
39190;SDS011;24916;51.676;6.614;2023-12-22T08:55:50;8.23;;;2.97;;
39190;SDS011;24916;51.676;6.614;2023-12-22T08:58:16;8.43;;;2.92;;
39190;SDS011;24916;51.676;6.614;2023-12-22T09:00:41;8.88;;;2.95;;
39190;SDS011;24916;51.676;6.614;2023-12-22T09:03:06;9.63;;;2.75;;
39190;SDS011;24916;51.676;6.614;2023-12-22T09:05:31;10.05;;;2.88;;
39190;SDS011;24916;51.676;6.614;2023-12-22T09:07:57;9.20;;;2.63;;
39190;SDS011;24916;51.676;6.614;2023-12-22T09:10:24;8.20;;;2.80;;
39190;SDS011;24916;51.676;6.614;2023-12-22T09:12:50;7.25;;;3.03;;
39190;SDS011;24916;51.676;6.614;2023-12-22T09:15:16;7.88;;;2.90;;
39190;SDS011;24916;51.676;6.614;2023-12-22T09:17:41;8.00;;;2.72;;
39190;SDS011;24916;51.676;6.614;2023-12-22T09:20:07;6.72;;;2.30;;
39190;SDS011;24916;51.676;6.614;2023-12-22T09:22:32;8.15;;;2.22;;
39190;SDS011;24916;51.676;6.614;2023-12-22T09:24:57;6.93;;;2.30;;
39190;SDS011;24916;51.676;6.614;2023-12-22T09:27:23;9.70;;;2.55;;
39190;SDS011;24916;51.676;6.614;2023-12-22T09:29:48;5.85;;;2.50;;
39190;SDS011;24916;51.676;6.614;2023-12-22T09:32:13;7.05;;;2.67;;
39190;SDS011;24916;51.676;6.614;2023-12-22T09:34:38;5.05;;;2.15;;
39190;SDS011;24916;51.676;6.614;2023-12-22T09:37:05;5.75;;;2.35;;
39190;SDS011;24916;51.676;6.614;2023-12-22T09:39:35;6.45;;;2.22;;
39190;SDS011;24916;51.676;6.614;2023-12-22T09:42:00;4.97;;;2.33;;
39190;SDS011;24916;51.676;6.614;2023-12-22T09:44:25;5.28;;;2.20;;
39190;SDS011;24916;51.676;6.614;2023-12-22T09:46:51;7.00;;;2.38;;
39190;SDS011;24916;51.676;6.614;2023-12-22T09:49:20;4.22;;;2.25;;
39190;SDS011;24916;51.676;6.614;2023-12-22T09:51:46;5.28;;;2.35;;
39190;SDS011;24916;51.676;6.614;2023-12-22T09:54:12;5.18;;;2.03;;
39190;SDS011;24916;51.676;6.614;2023-12-22T09:56:38;4.28;;;2.17;;
39190;SDS011;24916;51.676;6.614;2023-12-22T09:59:09;6.95;;;2.63;;
39190;SDS011;24916;51.676;6.614;2023-12-22T10:01:34;4.43;;;1.85;;
39190;SDS011;24916;51.676;6.614;2023-12-22T10:04:00;5.65;;;2.15;;
39190;SDS011;24916;51.676;6.614;2023-12-22T10:06:25;5.43;;;2.20;;
39190;SDS011;24916;51.676;6.614;2023-12-22T10:08:52;4.32;;;2.03;;
39190;SDS011;24916;51.676;6.614;2023-12-22T10:11:18;4.93;;;1.83;;
39190;SDS011;24916;51.676;6.614;2023-12-22T10:13:44;5.78;;;1.90;;
39190;SDS011;24916;51.676;6.614;2023-12-22T10:16:09;5.82;;;2.25;;
39190;SDS011;24916;51.676;6.614;2023-12-22T10:18:34;4.43;;;1.85;;
39190;SDS011;24916;51.676;6.614;2023-12-22T10:21:00;4.38;;;2.05;;
39190;SDS011;24916;51.676;6.614;2023-12-22T10:23:26;4.13;;;2.03;;
39190;SDS011;24916;51.676;6.614;2023-12-22T10:25:51;3.97;;;1.80;;
39190;SDS011;24916;51.676;6.614;2023-12-22T10:28:16;4.18;;;1.73;;
39190;SDS011;24916;51.676;6.614;2023-12-22T10:30:42;4.57;;;2.10;;
39190;SDS011;24916;51.676;6.614;2023-12-22T10:33:09;4.70;;;1.88;;
39190;SDS011;24916;51.676;6.614;2023-12-22T10:35:34;5.40;;;1.83;;
39190;SDS011;24916;51.676;6.614;2023-12-22T10:38:00;4.05;;;1.70;;
39190;SDS011;24916;51.676;6.614;2023-12-22T10:40:25;4.55;;;1.92;;
39190;SDS011;24916;51.676;6.614;2023-12-22T10:42:50;3.67;;;1.80;;
39190;SDS011;24916;51.676;6.614;2023-12-22T10:45:17;5.70;;;2.20;;
39190;SDS011;24916;51.676;6.614;2023-12-22T10:47:43;3.72;;;1.70;;
39190;SDS011;24916;51.676;6.614;2023-12-22T10:50:08;5.88;;;1.92;;
39190;SDS011;24916;51.676;6.614;2023-12-22T10:52:36;4.32;;;1.80;;
39190;SDS011;24916;51.676;6.614;2023-12-22T10:55:02;3.97;;;1.80;;
39190;SDS011;24916;51.676;6.614;2023-12-22T10:57:27;5.07;;;1.85;;
39190;SDS011;24916;51.676;6.614;2023-12-22T10:59:53;6.53;;;1.98;;
39190;SDS011;24916;51.676;6.614;2023-12-22T11:02:21;5.57;;;1.70;;
39190;SDS011;24916;51.676;6.614;2023-12-22T11:04:52;5.03;;;1.60;;
39190;SDS011;24916;51.676;6.614;2023-12-22T11:07:23;3.53;;;1.60;;
39190;SDS011;24916;51.676;6.614;2023-12-22T11:09:49;3.63;;;1.90;;
39190;SDS011;24916;51.676;6.614;2023-12-22T11:12:15;3.85;;;1.60;;
39190;SDS011;24916;51.676;6.614;2023-12-22T11:14:43;4.32;;;1.63;;
39190;SDS011;24916;51.676;6.614;2023-12-22T11:17:08;3.75;;;1.70;;
39190;SDS011;24916;51.676;6.614;2023-12-22T11:19:34;3.00;;;1.50;;
39190;SDS011;24916;51.676;6.614;2023-12-22T11:22:00;8.40;;;1.77;;
39190;SDS011;24916;51.676;6.614;2023-12-22T11:24:26;4.35;;;1.63;;
39190;SDS011;24916;51.676;6.614;2023-12-22T11:26:53;3.78;;;1.75;;
39190;SDS011;24916;51.676;6.614;2023-12-22T11:29:19;4.32;;;1.80;;
39190;SDS011;24916;51.676;6.614;2023-12-22T11:31:45;2.95;;;1.60;;
39190;SDS011;24916;51.676;6.614;2023-12-22T11:34:12;3.17;;;1.45;;
39190;SDS011;24916;51.676;6.614;2023-12-22T11:36:38;4.00;;;1.48;;
39190;SDS011;24916;51.676;6.614;2023-12-22T11:39:04;3.60;;;1.65;;
39190;SDS011;24916;51.676;6.614;2023-12-22T11:41:31;3.35;;;1.50;;
39190;SDS011;24916;51.676;6.614;2023-12-22T11:43:57;2.55;;;1.20;;
39190;SDS011;24916;51.676;6.614;2023-12-22T11:46:23;4.65;;;1.80;;
39190;SDS011;24916;51.676;6.614;2023-12-22T11:48:51;2.17;;;1.15;;
39190;SDS011;24916;51.676;6.614;2023-12-22T11:51:17;4.07;;;1.70;;
39190;SDS011;24916;51.676;6.614;2023-12-22T11:53:43;3.05;;;1.30;;
39190;SDS011;24916;51.676;6.614;2023-12-22T11:56:09;2.15;;;1.30;;
39190;SDS011;24916;51.676;6.614;2023-12-22T11:58:47;3.92;;;1.20;;
39190;SDS011;24916;51.676;6.614;2023-12-22T12:01:38;4.80;;;1.80;;
39190;SDS011;24916;51.676;6.614;2023-12-22T12:04:04;3.05;;;1.55;;
39190;SDS011;24916;51.676;6.614;2023-12-22T12:06:32;2.85;;;1.45;;
39190;SDS011;24916;51.676;6.614;2023-12-22T12:08:58;7.88;;;1.88;;
39190;SDS011;24916;51.676;6.614;2023-12-22T12:11:26;4.20;;;1.70;;
39190;SDS011;24916;51.676;6.614;2023-12-22T12:14:09;8.50;;;1.80;;
39190;SDS011;24916;51.676;6.614;2023-12-22T12:16:38;4.70;;;1.35;;
39190;SDS011;24916;51.676;6.614;2023-12-22T12:19:07;3.42;;;1.58;;
39190;SDS011;24916;51.676;6.614;2023-12-22T12:21:32;7.20;;;1.80;;
39190;SDS011;24916;51.676;6.614;2023-12-22T12:23:57;4.03;;;1.30;;
39190;SDS011;24916;51.676;6.614;2023-12-22T12:26:23;4.47;;;1.42;;
39190;SDS011;24916;51.676;6.614;2023-12-22T12:28:50;3.60;;;1.50;;
39190;SDS011;24916;51.676;6.614;2023-12-22T12:31:16;7.30;;;2.13;;
39190;SDS011;24916;51.676;6.614;2023-12-22T12:33:41;8.63;;;1.90;;
39190;SDS011;24916;51.676;6.614;2023-12-22T12:36:07;4.18;;;1.88;;
39190;SDS011;24916;51.676;6.614;2023-12-22T12:41:16;6.97;;;1.67;;
39190;SDS011;24916;51.676;6.614;2023-12-22T12:43:48;3.63;;;1.70;;
39190;SDS011;24916;51.676;6.614;2023-12-22T12:46:14;7.18;;;1.70;;
39190;SDS011;24916;51.676;6.614;2023-12-22T12:48:39;4.38;;;1.83;;
39190;SDS011;24916;51.676;6.614;2023-12-22T12:51:05;4.22;;;1.58;;
39190;SDS011;24916;51.676;6.614;2023-12-22T12:53:31;5.40;;;1.70;;
39190;SDS011;24916;51.676;6.614;2023-12-22T12:55:57;5.13;;;1.50;;
39190;SDS011;24916;51.676;6.614;2023-12-22T12:58:27;4.70;;;1.58;;
39190;SDS011;24916;51.676;6.614;2023-12-22T13:00:52;3.42;;;1.60;;
39190;SDS011;24916;51.676;6.614;2023-12-22T13:03:21;4.15;;;1.48;;
39190;SDS011;24916;51.676;6.614;2023-12-22T13:05:47;3.55;;;1.52;;
39190;SDS011;24916;51.676;6.614;2023-12-22T13:08:13;3.50;;;1.50;;
39190;SDS011;24916;51.676;6.614;2023-12-22T13:10:38;4.85;;;1.58;;
39190;SDS011;24916;51.676;6.614;2023-12-22T13:13:04;3.58;;;1.50;;
39190;SDS011;24916;51.676;6.614;2023-12-22T13:15:29;4.53;;;1.60;;
39190;SDS011;24916;51.676;6.614;2023-12-22T13:17:55;3.63;;;1.50;;
39190;SDS011;24916;51.676;6.614;2023-12-22T13:20:20;8.15;;;1.55;;
39190;SDS011;24916;51.676;6.614;2023-12-22T13:22:45;3.95;;;1.50;;
39190;SDS011;24916;51.676;6.614;2023-12-22T13:25:11;2.80;;;1.38;;
39190;SDS011;24916;51.676;6.614;2023-12-22T13:27:46;5.10;;;1.73;;
39190;SDS011;24916;51.676;6.614;2023-12-22T13:30:14;3.33;;;1.27;;
39190;SDS011;24916;51.676;6.614;2023-12-22T13:32:40;2.67;;;1.48;;
39190;SDS011;24916;51.676;6.614;2023-12-22T13:35:13;4.28;;;1.60;;
39190;SDS011;24916;51.676;6.614;2023-12-22T13:37:41;3.92;;;1.42;;
39190;SDS011;24916;51.676;6.614;2023-12-22T13:40:07;6.63;;;1.50;;
39190;SDS011;24916;51.676;6.614;2023-12-22T13:42:33;3.85;;;1.25;;
39190;SDS011;24916;51.676;6.614;2023-12-22T13:44:59;3.00;;;1.40;;
39190;SDS011;24916;51.676;6.614;2023-12-22T13:47:24;4.40;;;1.50;;
39190;SDS011;24916;51.676;6.614;2023-12-22T13:49:49;4.55;;;1.30;;
39190;SDS011;24916;51.676;6.614;2023-12-22T13:52:25;2.97;;;1.40;;
39190;SDS011;24916;51.676;6.614;2023-12-22T13:54:51;3.30;;;1.30;;
39190;SDS011;24916;51.676;6.614;2023-12-22T13:57:20;3.17;;;1.27;;
39190;SDS011;24916;51.676;6.614;2023-12-22T13:59:47;3.00;;;1.35;;
39190;SDS011;24916;51.676;6.614;2023-12-22T14:02:12;6.68;;;1.92;;
39190;SDS011;24916;51.676;6.614;2023-12-22T14:04:37;3.00;;;1.30;;
39190;SDS011;24916;51.676;6.614;2023-12-22T14:07:03;2.58;;;1.23;;
39190;SDS011;24916;51.676;6.614;2023-12-22T14:09:28;2.13;;;1.25;;
39190;SDS011;24916;51.676;6.614;2023-12-22T14:11:57;3.03;;;1.40;;
39190;SDS011;24916;51.676;6.614;2023-12-22T14:14:23;4.78;;;1.30;;
39190;SDS011;24916;51.676;6.614;2023-12-22T14:16:49;3.72;;;1.20;;
39190;SDS011;24916;51.676;6.614;2023-12-22T14:19:14;2.83;;;1.30;;
39190;SDS011;24916;51.676;6.614;2023-12-22T14:21:40;2.58;;;1.13;;
39190;SDS011;24916;51.676;6.614;2023-12-22T14:24:05;4.25;;;1.33;;
39190;SDS011;24916;51.676;6.614;2023-12-22T14:26:30;2.05;;;1.08;;
39190;SDS011;24916;51.676;6.614;2023-12-22T14:28:55;3.42;;;1.48;;
39190;SDS011;24916;51.676;6.614;2023-12-22T14:31:21;5.85;;;2.05;;
39190;SDS011;24916;51.676;6.614;2023-12-22T14:33:46;8.23;;;2.35;;
39190;SDS011;24916;51.676;6.614;2023-12-22T14:36:12;6.45;;;2.20;;
39190;SDS011;24916;51.676;6.614;2023-12-22T14:38:37;10.18;;;2.13;;
39190;SDS011;24916;51.676;6.614;2023-12-22T14:41:02;7.88;;;1.77;;
39190;SDS011;24916;51.676;6.614;2023-12-22T14:43:27;6.57;;;1.70;;
39190;SDS011;24916;51.676;6.614;2023-12-22T14:45:53;9.35;;;1.67;;